sensor_id;sensor_type;location;lat;lon;timestamp;temperature;humidity
70246;SHT30;57637;49.272;8.590;2022-07-23T00:00:13;23.46;70.05
70246;SHT30;57637;49.272;8.590;2022-07-23T00:02:39;23.44;69.43
70246;SHT30;57637;49.272;8.590;2022-07-23T00:05:04;23.47;69.72
70246;SHT30;57637;49.272;8.590;2022-07-23T00:07:29;23.42;69.70
70246;SHT30;57637;49.272;8.590;2022-07-23T00:09:55;23.40;69.39
70246;SHT30;57637;49.272;8.590;2022-07-23T00:12:20;23.12;70.22
70246;SHT30;57637;49.272;8.590;2022-07-23T00:14:46;22.95;70.86
70246;SHT30;57637;49.272;8.590;2022-07-23T00:17:12;22.85;71.05
70246;SHT30;57637;49.272;8.590;2022-07-23T00:19:37;22.82;70.41
70246;SHT30;57637;49.272;8.590;2022-07-23T00:22:02;22.55;70.71
70246;SHT30;57637;49.272;8.590;2022-07-23T00:24:28;22.48;70.99
70246;SHT30;57637;49.272;8.590;2022-07-23T00:26:53;22.44;70.70
70246;SHT30;57637;49.272;8.590;2022-07-23T00:29:19;22.53;70.50
70246;SHT30;57637;49.272;8.590;2022-07-23T00:31:44;22.63;70.37
70246;SHT30;57637;49.272;8.590;2022-07-23T00:34:10;22.69;70.04
70246;SHT30;57637;49.272;8.590;2022-07-23T00:36:35;22.68;70.04
70246;SHT30;57637;49.272;8.590;2022-07-23T00:39:01;22.55;70.70
70246;SHT30;57637;49.272;8.590;2022-07-23T00:41:26;22.51;71.02
70246;SHT30;57637;49.272;8.590;2022-07-23T00:43:51;22.48;71.35
70246;SHT30;57637;49.272;8.590;2022-07-23T00:46:20;22.52;71.58
70246;SHT30;57637;49.272;8.590;2022-07-23T00:48:46;22.47;71.77
70246;SHT30;57637;49.272;8.590;2022-07-23T00:51:12;22.42;72.27
70246;SHT30;57637;49.272;8.590;2022-07-23T00:53:37;22.35;70.68
70246;SHT30;57637;49.272;8.590;2022-07-23T00:56:03;22.41;69.61
70246;SHT30;57637;49.272;8.590;2022-07-23T00:58:29;22.41;68.63
70246;SHT30;57637;49.272;8.590;2022-07-23T01:00:55;22.41;67.89
70246;SHT30;57637;49.272;8.590;2022-07-23T01:03:21;22.44;67.53
70246;SHT30;57637;49.272;8.590;2022-07-23T01:05:47;22.38;67.50
70246;SHT30;57637;49.272;8.590;2022-07-23T01:08:12;22.37;67.16
70246;SHT30;57637;49.272;8.590;2022-07-23T01:10:38;22.32;67.42
70246;SHT30;57637;49.272;8.590;2022-07-23T01:13:04;22.30;67.33
70246;SHT30;57637;49.272;8.590;2022-07-23T01:15:32;22.25;67.42
70246;SHT30;57637;49.272;8.590;2022-07-23T01:17:58;22.25;67.42
70246;SHT30;57637;49.272;8.590;2022-07-23T01:20:24;22.18;67.61
70246;SHT30;57637;49.272;8.590;2022-07-23T01:22:50;22.15;67.51
70246;SHT30;57637;49.272;8.590;2022-07-23T01:25:16;22.15;67.48
70246;SHT30;57637;49.272;8.590;2022-07-23T01:27:42;22.07;67.82
70246;SHT30;57637;49.272;8.590;2022-07-23T01:30:08;22.04;67.92
70246;SHT30;57637;49.272;8.590;2022-07-23T01:32:34;22.05;67.86
70246;SHT30;57637;49.272;8.590;2022-07-23T01:34:59;22.07;67.61
70246;SHT30;57637;49.272;8.590;2022-07-23T01:37:25;22.08;67.51
70246;SHT30;57637;49.272;8.590;2022-07-23T01:39:51;22.12;67.32
70246;SHT30;57637;49.272;8.590;2022-07-23T01:42:16;22.17;66.98
70246;SHT30;57637;49.272;8.590;2022-07-23T01:44:42;22.18;67.14
70246;SHT30;57637;49.272;8.590;2022-07-23T01:47:07;22.20;66.93
70246;SHT30;57637;49.272;8.590;2022-07-23T01:49:32;22.21;66.93
70246;SHT30;57637;49.272;8.590;2022-07-23T01:51:58;22.20;66.98
70246;SHT30;57637;49.272;8.590;2022-07-23T01:54:30;22.21;66.95
70246;SHT30;57637;49.272;8.590;2022-07-23T01:56:57;22.17;67.09
70246;SHT30;57637;49.272;8.590;2022-07-23T01:59:23;22.08;67.44
70246;SHT30;57637;49.272;8.590;2022-07-23T02:01:49;21.88;68.27
70246;SHT30;57637;49.272;8.590;2022-07-23T02:04:18;21.83;68.36
70246;SHT30;57637;49.272;8.590;2022-07-23T02:06:44;21.77;68.61
70246;SHT30;57637;49.272;8.590;2022-07-23T02:09:09;21.66;69.20
70246;SHT30;57637;49.272;8.590;2022-07-23T02:11:35;21.60;69.58
70246;SHT30;57637;49.272;8.590;2022-07-23T02:14:01;21.56;69.68
70246;SHT30;57637;49.272;8.590;2022-07-23T02:16:26;21.51;69.43
70246;SHT30;57637;49.272;8.590;2022-07-23T02:18:52;21.51;69.53
70246;SHT30;57637;49.272;8.590;2022-07-23T02:21:17;21.50;69.47
70246;SHT30;57637;49.272;8.590;2022-07-23T02:23:42;21.50;69.50
70246;SHT30;57637;49.272;8.590;2022-07-23T02:26:08;21.45;70.02
70246;SHT30;57637;49.272;8.590;2022-07-23T02:28:33;21.39;70.12
70246;SHT30;57637;49.272;8.590;2022-07-23T02:30:59;21.35;69.91
70246;SHT30;57637;49.272;8.590;2022-07-23T02:33:24;21.32;70.13
70246;SHT30;57637;49.272;8.590;2022-07-23T02:35:50;21.33;70.21
70246;SHT30;57637;49.272;8.590;2022-07-23T02:38:15;21.27;70.41
70246;SHT30;57637;49.272;8.590;2022-07-23T02:40:41;21.27;70.35
70246;SHT30;57637;49.272;8.590;2022-07-23T02:43:06;21.29;70.17
70246;SHT30;57637;49.272;8.590;2022-07-23T02:45:31;21.25;70.46
70246;SHT30;57637;49.272;8.590;2022-07-23T02:47:57;21.15;70.90
70246;SHT30;57637;49.272;8.590;2022-07-23T02:50:22;21.10;70.85
70246;SHT30;57637;49.272;8.590;2022-07-23T02:52:48;21.15;70.95
70246;SHT30;57637;49.272;8.590;2022-07-23T02:55:13;21.13;71.12
70246;SHT30;57637;49.272;8.590;2022-07-23T02:57:39;21.06;71.21
70246;SHT30;57637;49.272;8.590;2022-07-23T03:00:05;20.88;71.95
70246;SHT30;57637;49.272;8.590;2022-07-23T03:02:32;20.75;72.79
70246;SHT30;57637;49.272;8.590;2022-07-23T03:04:57;20.67;72.83
70246;SHT30;57637;49.272;8.590;2022-07-23T03:07:23;20.69;72.75
70246;SHT30;57637;49.272;8.590;2022-07-23T03:09:48;20.78;72.54
70246;SHT30;57637;49.272;8.590;2022-07-23T03:12:13;20.81;72.56
70246;SHT30;57637;49.272;8.590;2022-07-23T03:14:39;20.81;72.87
70246;SHT30;57637;49.272;8.590;2022-07-23T03:17:05;20.76;73.11
70246;SHT30;57637;49.272;8.590;2022-07-23T03:19:30;20.82;72.59
70246;SHT30;57637;49.272;8.590;2022-07-23T03:21:56;20.86;72.43
70246;SHT30;57637;49.272;8.590;2022-07-23T03:24:21;20.95;72.28
70246;SHT30;57637;49.272;8.590;2022-07-23T03:26:48;21.02;72.41
70246;SHT30;57637;49.272;8.590;2022-07-23T03:29:14;21.02;72.31
70246;SHT30;57637;49.272;8.590;2022-07-23T03:31:40;21.03;72.25
70246;SHT30;57637;49.272;8.590;2022-07-23T03:34:05;21.05;72.49
70246;SHT30;57637;49.272;8.590;2022-07-23T03:36:31;21.05;72.09
70246;SHT30;57637;49.272;8.590;2022-07-23T03:38:56;20.99;71.83
70246;SHT30;57637;49.272;8.590;2022-07-23T03:41:21;20.92;72.21
70246;SHT30;57637;49.272;8.590;2022-07-23T03:43:47;20.82;73.31
70246;SHT30;57637;49.272;8.590;2022-07-23T03:46:12;20.72;73.71
70246;SHT30;57637;49.272;8.590;2022-07-23T03:48:38;20.61;74.42
70246;SHT30;57637;49.272;8.590;2022-07-23T03:51:03;20.54;74.90
70246;SHT30;57637;49.272;8.590;2022-07-23T03:53:29;20.49;74.71
70246;SHT30;57637;49.272;8.590;2022-07-23T03:55:54;20.59;73.86
70246;SHT30;57637;49.272;8.590;2022-07-23T03:58:20;20.69;73.44
70246;SHT30;57637;49.272;8.590;2022-07-23T04:00:45;20.75;73.29
70246;SHT30;57637;49.272;8.590;2022-07-23T04:03:11;20.79;73.30
70246;SHT30;57637;49.272;8.590;2022-07-23T04:05:36;20.85;72.97
70246;SHT30;57637;49.272;8.590;2022-07-23T04:08:02;20.89;73.41
70246;SHT30;57637;49.272;8.590;2022-07-23T04:10:27;20.89;73.78
70246;SHT30;57637;49.272;8.590;2022-07-23T04:12:53;20.86;73.95
70246;SHT30;57637;49.272;8.590;2022-07-23T04:15:18;20.89;73.96
70246;SHT30;57637;49.272;8.590;2022-07-23T04:17:44;20.86;73.83
70246;SHT30;57637;49.272;8.590;2022-07-23T04:20:11;20.88;75.17
70246;SHT30;57637;49.272;8.590;2022-07-23T04:22:36;20.84;78.34
70246;SHT30;57637;49.272;8.590;2022-07-23T04:25:02;20.82;78.68
70246;SHT30;57637;49.272;8.590;2022-07-23T04:27:27;20.65;77.43
70246;SHT30;57637;49.272;8.590;2022-07-23T04:29:53;20.71;78.49
70246;SHT30;57637;49.272;8.590;2022-07-23T04:32:18;20.67;78.78
70246;SHT30;57637;49.272;8.590;2022-07-23T04:34:44;20.69;81.18
70246;SHT30;57637;49.272;8.590;2022-07-23T04:37:09;20.65;81.86
70246;SHT30;57637;49.272;8.590;2022-07-23T04:39:34;20.61;81.75
70246;SHT30;57637;49.272;8.590;2022-07-23T04:42:00;20.64;80.73
70246;SHT30;57637;49.272;8.590;2022-07-23T04:44:25;20.71;81.21
70246;SHT30;57637;49.272;8.590;2022-07-23T04:46:51;20.81;81.01
70246;SHT30;57637;49.272;8.590;2022-07-23T04:49:16;20.85;81.06
70246;SHT30;57637;49.272;8.590;2022-07-23T04:51:42;20.89;81.12
70246;SHT30;57637;49.272;8.590;2022-07-23T04:54:07;20.75;81.85
70246;SHT30;57637;49.272;8.590;2022-07-23T04:56:32;20.61;83.57
70246;SHT30;57637;49.272;8.590;2022-07-23T04:58:58;20.48;84.02
70246;SHT30;57637;49.272;8.590;2022-07-23T05:01:23;20.43;84.37
70246;SHT30;57637;49.272;8.590;2022-07-23T05:03:49;20.37;84.68
70246;SHT30;57637;49.272;8.590;2022-07-23T05:06:14;20.31;84.42
70246;SHT30;57637;49.272;8.590;2022-07-23T05:08:40;20.35;83.56
70246;SHT30;57637;49.272;8.590;2022-07-23T05:11:05;20.33;83.20
70246;SHT30;57637;49.272;8.590;2022-07-23T05:13:31;20.38;83.02
70246;SHT30;57637;49.272;8.590;2022-07-23T05:15:56;20.40;83.08
70246;SHT30;57637;49.272;8.590;2022-07-23T05:18:22;20.38;84.04
70246;SHT30;57637;49.272;8.590;2022-07-23T05:20:47;20.38;84.30
70246;SHT30;57637;49.272;8.590;2022-07-23T05:23:12;20.40;84.44
70246;SHT30;57637;49.272;8.590;2022-07-23T05:25:38;20.38;83.67
70246;SHT30;57637;49.272;8.590;2022-07-23T05:28:04;20.34;83.45
70246;SHT30;57637;49.272;8.590;2022-07-23T05:30:30;20.45;83.28
70246;SHT30;57637;49.272;8.590;2022-07-23T05:32:55;20.34;81.69
70246;SHT30;57637;49.272;8.590;2022-07-23T05:35:21;20.35;81.81
70246;SHT30;57637;49.272;8.590;2022-07-23T05:37:46;20.38;82.01
70246;SHT30;57637;49.272;8.590;2022-07-23T05:40:12;20.35;83.15
70246;SHT30;57637;49.272;8.590;2022-07-23T05:42:38;20.37;83.54
70246;SHT30;57637;49.272;8.590;2022-07-23T05:45:05;20.51;81.71
70246;SHT30;57637;49.272;8.590;2022-07-23T05:47:44;20.40;83.91
70246;SHT30;57637;49.272;8.590;2022-07-23T05:50:11;20.45;84.68
70246;SHT30;57637;49.272;8.590;2022-07-23T05:52:37;20.57;82.72
70246;SHT30;57637;49.272;8.590;2022-07-23T05:55:03;20.72;81.52
70246;SHT30;57637;49.272;8.590;2022-07-23T05:57:29;20.75;82.29
70246;SHT30;57637;49.272;8.590;2022-07-23T05:59:55;20.71;82.62
70246;SHT30;57637;49.272;8.590;2022-07-23T06:02:20;20.69;82.70
70246;SHT30;57637;49.272;8.590;2022-07-23T06:04:45;20.78;83.31
70246;SHT30;57637;49.272;8.590;2022-07-23T06:07:11;20.91;83.26
70246;SHT30;57637;49.272;8.590;2022-07-23T06:09:36;20.92;82.31
70246;SHT30;57637;49.272;8.590;2022-07-23T06:12:02;21.13;81.83
70246;SHT30;57637;49.272;8.590;2022-07-23T06:14:27;21.26;80.75
70246;SHT30;57637;49.272;8.590;2022-07-23T06:16:53;21.33;79.68
70246;SHT30;57637;49.272;8.590;2022-07-23T06:19:18;21.25;79.29
70246;SHT30;57637;49.272;8.590;2022-07-23T06:21:44;21.39;78.51
70246;SHT30;57637;49.272;8.590;2022-07-23T06:24:09;21.47;79.87
70246;SHT30;57637;49.272;8.590;2022-07-23T06:26:34;21.50;82.18
70246;SHT30;57637;49.272;8.590;2022-07-23T06:29:00;21.49;82.12
70246;SHT30;57637;49.272;8.590;2022-07-23T06:31:26;21.50;82.69
70246;SHT30;57637;49.272;8.590;2022-07-23T06:33:51;21.47;82.01
70246;SHT30;57637;49.272;8.590;2022-07-23T06:36:16;21.32;84.10
70246;SHT30;57637;49.272;8.590;2022-07-23T06:38:42;21.22;83.15
70246;SHT30;57637;49.272;8.590;2022-07-23T06:41:07;21.13;83.96
70246;SHT30;57637;49.272;8.590;2022-07-23T06:43:33;21.27;83.80
70246;SHT30;57637;49.272;8.590;2022-07-23T06:45:58;21.35;83.33
70246;SHT30;57637;49.272;8.590;2022-07-23T06:48:24;21.32;82.61
70246;SHT30;57637;49.272;8.590;2022-07-23T06:50:49;21.03;82.42
70246;SHT30;57637;49.272;8.590;2022-07-23T06:53:14;20.98;83.01
70246;SHT30;57637;49.272;8.590;2022-07-23T06:55:40;21.06;83.71
70246;SHT30;57637;49.272;8.590;2022-07-23T06:58:05;21.29;83.20
70246;SHT30;57637;49.272;8.590;2022-07-23T07:00:31;21.45;82.70
70246;SHT30;57637;49.272;8.590;2022-07-23T07:02:57;21.59;83.78
70246;SHT30;57637;49.272;8.590;2022-07-23T07:05:23;21.84;82.45
70246;SHT30;57637;49.272;8.590;2022-07-23T07:07:50;22.12;81.24
70246;SHT30;57637;49.272;8.590;2022-07-23T07:10:15;22.55;80.54
70246;SHT30;57637;49.272;8.590;2022-07-23T07:12:42;22.86;78.17
70246;SHT30;57637;49.272;8.590;2022-07-23T07:15:11;22.90;77.45
70246;SHT30;57637;49.272;8.590;2022-07-23T07:17:37;23.09;75.84
70246;SHT30;57637;49.272;8.590;2022-07-23T07:20:02;23.04;75.34
70246;SHT30;57637;49.272;8.590;2022-07-23T07:22:29;23.43;75.67
70246;SHT30;57637;49.272;8.590;2022-07-23T07:24:54;23.68;75.20
70246;SHT30;57637;49.272;8.590;2022-07-23T07:27:20;23.63;74.61
70246;SHT30;57637;49.272;8.590;2022-07-23T07:29:45;23.61;74.38
70246;SHT30;57637;49.272;8.590;2022-07-23T07:32:11;23.33;73.39
70246;SHT30;57637;49.272;8.590;2022-07-23T07:34:36;23.27;74.84
70246;SHT30;57637;49.272;8.590;2022-07-23T07:37:02;23.06;74.52
70246;SHT30;57637;49.272;8.590;2022-07-23T07:39:27;23.37;74.74
70246;SHT30;57637;49.272;8.590;2022-07-23T07:41:52;23.74;72.89
70246;SHT30;57637;49.272;8.590;2022-07-23T07:44:18;24.04;71.83
70246;SHT30;57637;49.272;8.590;2022-07-23T07:46:44;24.52;70.18
70246;SHT30;57637;49.272;8.590;2022-07-23T07:49:09;24.29;71.85
70246;SHT30;57637;49.272;8.590;2022-07-23T07:51:35;24.22;70.75
70246;SHT30;57637;49.272;8.590;2022-07-23T07:54:00;24.39;70.35
70246;SHT30;57637;49.272;8.590;2022-07-23T07:56:26;24.06;69.29
70246;SHT30;57637;49.272;8.590;2022-07-23T07:58:51;23.88;71.34
70246;SHT30;57637;49.272;8.590;2022-07-23T08:01:17;24.06;71.05
70246;SHT30;57637;49.272;8.590;2022-07-23T08:03:44;24.02;70.53
70246;SHT30;57637;49.272;8.590;2022-07-23T08:06:09;23.67;70.95
70246;SHT30;57637;49.272;8.590;2022-07-23T08:08:35;24.30;71.18
70246;SHT30;57637;49.272;8.590;2022-07-23T08:11:00;24.42;68.76
70246;SHT30;57637;49.272;8.590;2022-07-23T08:13:25;23.93;70.81
70246;SHT30;57637;49.272;8.590;2022-07-23T08:15:51;23.54;71.65
70246;SHT30;57637;49.272;8.590;2022-07-23T08:18:18;23.39;72.20
70246;SHT30;57637;49.272;8.590;2022-07-23T08:20:43;23.33;73.05
70246;SHT30;57637;49.272;8.590;2022-07-23T08:23:09;23.42;72.65
70246;SHT30;57637;49.272;8.590;2022-07-23T08:25:36;23.81;71.46
70246;SHT30;57637;49.272;8.590;2022-07-23T08:28:04;23.77;71.01
70246;SHT30;57637;49.272;8.590;2022-07-23T08:30:31;23.75;71.41
70246;SHT30;57637;49.272;8.590;2022-07-23T08:32:58;23.78;71.59
70246;SHT30;57637;49.272;8.590;2022-07-23T08:35:32;23.91;70.79
70246;SHT30;57637;49.272;8.590;2022-07-23T08:38:02;24.12;71.90
70246;SHT30;57637;49.272;8.590;2022-07-23T08:40:34;24.26;70.57
70246;SHT30;57637;49.272;8.590;2022-07-23T08:43:05;23.97;71.31
70246;SHT30;57637;49.272;8.590;2022-07-23T08:45:35;23.49;72.18
70246;SHT30;57637;49.272;8.590;2022-07-23T08:48:03;23.22;73.33
70246;SHT30;57637;49.272;8.590;2022-07-23T08:50:30;23.22;74.18
70246;SHT30;57637;49.272;8.590;2022-07-23T08:52:56;23.23;73.95
70246;SHT30;57637;49.272;8.590;2022-07-23T08:55:23;23.02;74.60
70246;SHT30;57637;49.272;8.590;2022-07-23T08:57:49;23.27;74.00
70246;SHT30;57637;49.272;8.590;2022-07-23T09:00:17;23.53;73.70
70246;SHT30;57637;49.272;8.590;2022-07-23T09:02:43;23.10;73.98
70246;SHT30;57637;49.272;8.590;2022-07-23T09:05:10;23.19;73.56
70246;SHT30;57637;49.272;8.590;2022-07-23T09:07:37;23.09;73.65
70246;SHT30;57637;49.272;8.590;2022-07-23T09:10:10;23.03;74.09
70246;SHT30;57637;49.272;8.590;2022-07-23T09:12:36;22.90;74.63
70246;SHT30;57637;49.272;8.590;2022-07-23T09:15:03;22.99;74.22
70246;SHT30;57637;49.272;8.590;2022-07-23T09:17:36;22.92;73.90
70246;SHT30;57637;49.272;8.590;2022-07-23T09:20:10;22.88;73.77
70246;SHT30;57637;49.272;8.590;2022-07-23T09:22:38;23.00;73.75
70246;SHT30;57637;49.272;8.590;2022-07-23T09:25:09;23.36;73.19
70246;SHT30;57637;49.272;8.590;2022-07-23T09:30:19;23.49;70.75
70246;SHT30;57637;49.272;8.590;2022-07-23T09:33:05;23.49;70.68
70246;SHT30;57637;49.272;8.590;2022-07-23T09:35:53;23.61;69.86
70246;SHT30;57637;49.272;8.590;2022-07-23T09:38:23;23.71;70.54
70246;SHT30;57637;49.272;8.590;2022-07-23T09:41:08;23.86;70.31
70246;SHT30;57637;49.272;8.590;2022-07-23T09:43:34;23.88;69.76
70246;SHT30;57637;49.272;8.590;2022-07-23T09:48:52;24.30;68.88
70246;SHT30;57637;49.272;8.590;2022-07-23T09:51:18;24.35;68.28
70246;SHT30;57637;49.272;8.590;2022-07-23T09:54:05;24.56;66.47
70246;SHT30;57637;49.272;8.590;2022-07-23T09:56:30;24.43;67.16
70246;SHT30;57637;49.272;8.590;2022-07-23T09:58:57;24.55;67.01
70246;SHT30;57637;49.272;8.590;2022-07-23T10:01:34;24.75;65.52
70246;SHT30;57637;49.272;8.590;2022-07-23T10:04:00;24.83;65.63
70246;SHT30;57637;49.272;8.590;2022-07-23T10:06:26;24.98;64.72
70246;SHT30;57637;49.272;8.590;2022-07-23T10:08:53;25.02;65.04
70246;SHT30;57637;49.272;8.590;2022-07-23T10:11:23;25.51;64.19
70246;SHT30;57637;49.272;8.590;2022-07-23T10:13:49;25.27;65.01
70246;SHT30;57637;49.272;8.590;2022-07-23T10:16:18;25.48;63.47
70246;SHT30;57637;49.272;8.590;2022-07-23T10:18:43;25.64;63.74
70246;SHT30;57637;49.272;8.590;2022-07-23T10:21:09;25.74;62.44
70246;SHT30;57637;49.272;8.590;2022-07-23T10:28:42;25.82;61.31
70246;SHT30;57637;49.272;8.590;2022-07-23T10:31:25;26.12;59.91
70246;SHT30;57637;49.272;8.590;2022-07-23T10:34:00;26.05;61.79
70246;SHT30;57637;49.272;8.590;2022-07-23T10:36:49;26.20;61.06
70246;SHT30;57637;49.272;8.590;2022-07-23T10:42:11;26.12;61.13
70246;SHT30;57637;49.272;8.590;2022-07-23T10:44:42;26.15;60.54
70246;SHT30;57637;49.272;8.590;2022-07-23T10:47:12;26.05;60.54
70246;SHT30;57637;49.272;8.590;2022-07-23T10:50:19;25.99;59.80
70246;SHT30;57637;49.272;8.590;2022-07-23T10:57:55;26.50;59.07
70246;SHT30;57637;49.272;8.590;2022-07-23T11:00:21;26.52;59.66
70246;SHT30;57637;49.272;8.590;2022-07-23T11:02:50;26.59;58.76
70246;SHT30;57637;49.272;8.590;2022-07-23T11:05:23;26.37;58.83
70246;SHT30;57637;49.272;8.590;2022-07-23T11:10:39;26.52;58.61
70246;SHT30;57637;49.272;8.590;2022-07-23T11:13:51;27.05;58.13
70246;SHT30;57637;49.272;8.590;2022-07-23T11:24:03;26.71;58.84
70246;SHT30;57637;49.272;8.590;2022-07-23T11:34:44;27.22;58.27
70246;SHT30;57637;49.272;8.590;2022-07-23T11:37:31;26.90;57.67
70246;SHT30;57637;49.272;8.590;2022-07-23T11:39:57;27.24;56.45
70246;SHT30;57637;49.272;8.590;2022-07-23T11:42:23;27.30;55.33
70246;SHT30;57637;49.272;8.590;2022-07-23T11:44:50;27.45;54.69
70246;SHT30;57637;49.272;8.590;2022-07-23T11:47:20;28.21;54.33
70246;SHT30;57637;49.272;8.590;2022-07-23T11:50:08;28.81;52.57
70246;SHT30;57637;49.272;8.590;2022-07-23T11:52:33;29.12;50.48
70246;SHT30;57637;49.272;8.590;2022-07-23T11:55:06;29.52;51.79
70246;SHT30;57637;49.272;8.590;2022-07-23T11:57:34;29.66;52.09
70246;SHT30;57637;49.272;8.590;2022-07-23T12:00:08;29.16;50.10
70246;SHT30;57637;49.272;8.590;2022-07-23T12:02:46;28.17;52.92
70246;SHT30;57637;49.272;8.590;2022-07-23T12:05:13;27.70;53.66
70246;SHT30;57637;49.272;8.590;2022-07-23T12:07:41;27.82;52.56
70246;SHT30;57637;49.272;8.590;2022-07-23T12:13:04;28.05;51.82
70246;SHT30;57637;49.272;8.590;2022-07-23T12:15:33;27.86;51.71
70246;SHT30;57637;49.272;8.590;2022-07-23T12:18:02;27.69;51.45
70246;SHT30;57637;49.272;8.590;2022-07-23T12:20:36;27.70;51.64
70246;SHT30;57637;49.272;8.590;2022-07-23T12:23:04;27.81;51.67
70246;SHT30;57637;49.272;8.590;2022-07-23T12:25:33;27.97;50.20
70246;SHT30;57637;49.272;8.590;2022-07-23T12:28:04;28.32;50.17
70246;SHT30;57637;49.272;8.590;2022-07-23T12:30:40;28.67;50.30
70246;SHT30;57637;49.272;8.590;2022-07-23T12:33:08;29.48;48.13
70246;SHT30;57637;49.272;8.590;2022-07-23T12:35:39;29.91;47.62
70246;SHT30;57637;49.272;8.590;2022-07-23T12:38:07;30.45;46.02
70246;SHT30;57637;49.272;8.590;2022-07-23T12:46:06;30.91;46.20
70246;SHT30;57637;49.272;8.590;2022-07-23T12:48:37;31.00;45.88
70246;SHT30;57637;49.272;8.590;2022-07-23T12:51:08;30.91;45.50
70246;SHT30;57637;49.272;8.590;2022-07-23T12:53:40;31.06;45.52
70246;SHT30;57637;49.272;8.590;2022-07-23T12:58:42;31.57;43.98
70246;SHT30;57637;49.272;8.590;2022-07-23T13:06:28;31.56;45.08
70246;SHT30;57637;49.272;8.590;2022-07-23T13:08:56;31.59;45.47
70246;SHT30;57637;49.272;8.590;2022-07-23T13:11:21;31.23;45.84
70246;SHT30;57637;49.272;8.590;2022-07-23T13:13:47;31.15;45.97
70246;SHT30;57637;49.272;8.590;2022-07-23T13:16:12;31.39;45.82
70246;SHT30;57637;49.272;8.590;2022-07-23T13:18:38;31.45;45.89
70246;SHT30;57637;49.272;8.590;2022-07-23T13:21:03;31.42;45.93
70246;SHT30;57637;49.272;8.590;2022-07-23T13:23:28;31.21;44.99
70246;SHT30;57637;49.272;8.590;2022-07-23T13:25:54;30.49;45.97
70246;SHT30;57637;49.272;8.590;2022-07-23T13:28:20;30.11;46.98
70246;SHT30;57637;49.272;8.590;2022-07-23T13:30:47;30.07;47.92
70246;SHT30;57637;49.272;8.590;2022-07-23T13:33:15;31.02;46.46
70246;SHT30;57637;49.272;8.590;2022-07-23T13:35:41;30.64;46.54
70246;SHT30;57637;49.272;8.590;2022-07-23T13:38:07;30.03;48.10
70246;SHT30;57637;49.272;8.590;2022-07-23T13:40:33;29.39;48.95
70246;SHT30;57637;49.272;8.590;2022-07-23T13:43:00;28.87;50.58
70246;SHT30;57637;49.272;8.590;2022-07-23T13:45:26;28.57;51.06
70246;SHT30;57637;49.272;8.590;2022-07-23T13:47:51;28.86;50.62
70246;SHT30;57637;49.272;8.590;2022-07-23T13:50:17;28.67;50.85
70246;SHT30;57637;49.272;8.590;2022-07-23T13:52:43;28.91;50.22
70246;SHT30;57637;49.272;8.590;2022-07-23T13:55:08;28.88;50.35
70246;SHT30;57637;49.272;8.590;2022-07-23T13:57:34;28.36;51.49
70246;SHT30;57637;49.272;8.590;2022-07-23T13:59:59;28.56;51.02
70246;SHT30;57637;49.272;8.590;2022-07-23T14:02:25;28.44;51.30
70246;SHT30;57637;49.272;8.590;2022-07-23T14:04:51;28.36;51.71
70246;SHT30;57637;49.272;8.590;2022-07-23T14:07:17;28.00;52.32
70246;SHT30;57637;49.272;8.590;2022-07-23T14:09:42;28.23;52.09
70246;SHT30;57637;49.272;8.590;2022-07-23T14:12:08;28.21;51.27
70246;SHT30;57637;49.272;8.590;2022-07-23T14:14:34;28.35;51.33
70246;SHT30;57637;49.272;8.590;2022-07-23T14:17:00;28.46;51.53
70246;SHT30;57637;49.272;8.590;2022-07-23T14:19:26;28.03;52.48
70246;SHT30;57637;49.272;8.590;2022-07-23T14:21:51;27.85;53.41
70246;SHT30;57637;49.272;8.590;2022-07-23T14:24:16;27.85;53.06
70246;SHT30;57637;49.272;8.590;2022-07-23T14:26:42;27.90;53.88
70246;SHT30;57637;49.272;8.590;2022-07-23T14:29:08;27.82;53.35
70246;SHT30;57637;49.272;8.590;2022-07-23T14:31:33;27.69;53.77
70246;SHT30;57637;49.272;8.590;2022-07-23T14:33:59;27.59;53.75
70246;SHT30;57637;49.272;8.590;2022-07-23T14:36:24;27.69;54.13
70246;SHT30;57637;49.272;8.590;2022-07-23T14:38:50;27.51;53.90
70246;SHT30;57637;49.272;8.590;2022-07-23T14:41:16;27.48;53.52
70246;SHT30;57637;49.272;8.590;2022-07-23T14:43:41;27.46;53.86
70246;SHT30;57637;49.272;8.590;2022-07-23T14:46:07;27.54;53.21
70246;SHT30;57637;49.272;8.590;2022-07-23T14:48:32;27.67;53.19
70246;SHT30;57637;49.272;8.590;2022-07-23T14:50:58;27.69;53.25
70246;SHT30;57637;49.272;8.590;2022-07-23T14:53:23;27.69;52.81
70246;SHT30;57637;49.272;8.590;2022-07-23T14:55:49;27.69;52.92
70246;SHT30;57637;49.272;8.590;2022-07-23T14:58:14;27.73;52.94
70246;SHT30;57637;49.272;8.590;2022-07-23T15:00:39;27.78;52.32
70246;SHT30;57637;49.272;8.590;2022-07-23T15:03:05;28.03;52.01
70246;SHT30;57637;49.272;8.590;2022-07-23T15:05:30;28.23;51.19
70246;SHT30;57637;49.272;8.590;2022-07-23T15:07:56;28.50;50.43
70246;SHT30;57637;49.272;8.590;2022-07-23T15:10:21;28.58;50.92
70246;SHT30;57637;49.272;8.590;2022-07-23T15:12:47;28.63;50.70
70246;SHT30;57637;49.272;8.590;2022-07-23T15:15:12;28.72;50.50
70246;SHT30;57637;49.272;8.590;2022-07-23T15:17:38;28.91;50.73
70246;SHT30;57637;49.272;8.590;2022-07-23T15:20:04;28.95;49.46
70246;SHT30;57637;49.272;8.590;2022-07-23T15:22:30;28.98;49.83
70246;SHT30;57637;49.272;8.590;2022-07-23T15:24:55;28.84;49.18
70246;SHT30;57637;49.272;8.590;2022-07-23T15:27:21;29.07;49.51
70246;SHT30;57637;49.272;8.590;2022-07-23T15:29:46;28.69;49.55
70246;SHT30;57637;49.272;8.590;2022-07-23T15:32:12;29.02;48.72
70246;SHT30;57637;49.272;8.590;2022-07-23T15:34:37;28.61;49.02
70246;SHT30;57637;49.272;8.590;2022-07-23T15:37:03;28.53;49.62
70246;SHT30;57637;49.272;8.590;2022-07-23T15:39:31;28.71;48.98
70246;SHT30;57637;49.272;8.590;2022-07-23T15:41:58;29.15;49.54
70246;SHT30;57637;49.272;8.590;2022-07-23T15:44:27;29.45;49.02
70246;SHT30;57637;49.272;8.590;2022-07-23T15:46:52;29.23;48.34
70246;SHT30;57637;49.272;8.590;2022-07-23T15:49:18;29.01;48.68
70246;SHT30;57637;49.272;8.590;2022-07-23T15:51:44;28.81;49.11
70246;SHT30;57637;49.272;8.590;2022-07-23T15:54:09;28.94;48.38
70246;SHT30;57637;49.272;8.590;2022-07-23T15:56:35;28.99;47.99
70246;SHT30;57637;49.272;8.590;2022-07-23T15:59:00;29.14;48.22
70246;SHT30;57637;49.272;8.590;2022-07-23T16:01:26;29.20;48.53
70246;SHT30;57637;49.272;8.590;2022-07-23T16:03:54;29.48;47.08
70246;SHT30;57637;49.272;8.590;2022-07-23T16:06:20;29.42;47.29
70246;SHT30;57637;49.272;8.590;2022-07-23T16:08:46;29.43;47.41
70246;SHT30;57637;49.272;8.590;2022-07-23T16:11:11;29.36;47.33
70246;SHT30;57637;49.272;8.590;2022-07-23T16:13:37;29.46;46.68
70246;SHT30;57637;49.272;8.590;2022-07-23T16:16:02;29.59;47.01
70246;SHT30;57637;49.272;8.590;2022-07-23T16:18:29;29.22;47.49
70246;SHT30;57637;49.272;8.590;2022-07-23T16:20:55;29.19;47.11